Station: EBLB - 24/07/2021 04:25Z (il y a 15 minutes)
EBLB 240425Z AUTO VRB01KT 8000 FEW120/// BKN180/// BKN200/// 12/11 Q1011 BLU
Vent de direction variable: 1 kt
Visibilité: 8000 m
Nuages épars à 12000 pieds - Ciel 75% couvert à 18000 pieds - Ciel 75% couvert à 20000 pieds
Température: +12ºC - Point de rosée: +11ºC - QNH: 1011 hPa
Code couleur militaire: BLU (conditions VMC)